Terminal Aerodrome Forecast
Issued by NWS

Home | Current Version | Previous Version | Text Only | Print | Product List | Glossary On
Versions: 1 2 3 4 5 6 7 8 9 10 11 12 13 14 15 16
256
FTUS43 KMQT 230754 AAA
TAFSAW
TAF AMD
KSAW 230754Z 2308/2406 04004KT 1/2SM FG OVC001
      TEMPO 2308/2311 1SM BR BKN001
     FM231200 36003KT 6SM BR OVC003
     FM231500 35004KT P6SM OVC008
     FM231800 01005KT P6SM BKN012
     FM232300 03008KT P6SM BKN015
     FM240500 01005KT P6SM BKN008=

USA.gov is the U.S. government's official web portal to all federal, state and local government web resources and services.